Total volume
$3,965
$83,404 in 24h
Trades
224
Unique wallets
146
Liquidity
$0
Latest YES mid
48¢
Latest NO mid
52¢
End date
2026-05-09
First seen
2026-05-09
last 05-09 05:54
Cohort breakdown
who's buying — by wallet tier SMI: -2.7¢ (top1%: 0% YES on $758 vs crowd: 3% YES on $3.7K)
By volume tier
Tier Wallets YES buy NO buy Net bias
🐬 Dolphin 1 $20 +$20
🐟 Fish 6 $1 $1.7K $1.7K
🦐 Shrimp 139 $83 $2.0K $1.9K
By P&L percentile
Tier Wallets YES buy NO buy Net bias
🎯 Top 1% 4 $1 $758 $757
🏆 Top 5% 27 $21 $783 $762
✅ Top 10% 18 $1 $207 $206
Median 42 $12 $352 $339
Below median 27 $4 $310 $307
⚠️ Bottom 10% 14 $3 $108 $104
🔻 Bottom 5% 11 $16 $117 $101
💀 Bottom 1% 3 $46 $1000 $954
Wallet Side Net shares Cost basis Volume Trades Last activity
Sparkling-Handsaw 0x5165…872f Down +1,010 $1,000 $1,000 2 05-09 05:54
Informal-Blight 0xb7a2…e144 Up +585 $15 $15 16 05-09 05:54
Odd-Enclosure 0x720e…17b0 Down +360 $353 $353 2 05-09 05:54
Wild-Owner 0xd541…e026 Down +270 $146 $146 1 05-09 05:49
Ambitious-Membership 0xc387…e4f4 Down +261 $259 $259 1 05-09 05:54
Livid-Television 0xc5da…5f86 Down +253 $249 $249 2 05-09 05:54
Extraneous-Barrier 0x3477…eb63 Down +204 $201 $201 1 05-09 05:54
Noisy-Death 0x2eb8…310f Down +141 $138 $138 1 05-09 05:54
Hurtful-Infancy 0xb36b…0cb1 Up +120 $2 $2 2 05-09 05:54
Probable-Demur 0x497b…e47c Down +112 $110 $110 2 05-09 05:54
Dearest-Dialogue-Garb 0xb66d…7ec1 Up +110 $2 $2 1 05-09 05:54
(anonymous) 0xeaea…3a45 Up +101 $3 $3 3 05-09 05:54
Distorted-Subject 0xe844…d224 Down +101 $98 $98 1 05-09 05:54
(anonymous) 0xe907…cff6 Up +96 $20 $20 6 05-09 05:54
Drafty-Spider 0xc216…7071 Down +61 $60 $60 1 05-09 05:54
Squeaky-Conviction 0xdfc5…2015 Up +55 $26 $26 2 05-09 05:49
Wordy-Transport 0x4eb5…7588 Down +55 $30 $30 1 05-09 05:49
Tiny-Receipt 0xc926…e004 Down +51 $50 $50 1 05-09 05:54
Sardonic-Concentration 0x2f49…a23b Down +51 $50 $50 1 05-09 05:54
Blushing-Going 0x0b24…c6f8 Down +51 $49 $49 1 05-09 05:54
Bare-Widow 0x1e12…8fe1 Up +50 $1 $1 1 05-09 05:54
Insignificant-Fund 0x6743…34d0 Up +50 $1 $1 1 05-09 05:54
Dear-Pyridine 0xad66…d8a6 Down +50 $50 $50 1 05-09 05:54
Moral-Compress 0x33eb…b07e Down +50 $50 $50 1 05-09 05:54
Interesting-Flatboat 0x3d32…a2a7 Down +45 $44 $44 6 05-09 05:54
Feisty-Attempt 0xc5ab…8bca Down +40 $39 $39 5 05-09 05:54
Nimble-Harmonica 0x8ab4…ad1e Down +40 $39 $39 5 05-09 05:54
Unrealistic-Gemsbok 0x7509…d031 Down +40 $39 $39 2 05-09 05:54
Useful-Panic 0x5cfc…c4ce Down +35 $34 $34 2 05-09 05:54
Dearest-Dialogue-Garb 0xb66d…7ec1 Down +35 $34 $34 4 05-09 05:54
Rectangular-Goodbye 0x5963…dff1 Up +33 $1 $1 1 05-09 05:54
Far-Manatee 0x93b7…c330 Up +33 $1 $1 1 05-09 05:54
Squiggly-Instrumentalist 0x5c32…2dd8 Down +30 $30 $30 4 05-09 05:54
Snoopy-Grouse 0x92a6…d6af Down +27 $15 $15 1 05-09 05:49
Abandoned-Sausage 0x28ba…d4fb Down +26 $14 $14 1 05-09 05:49
Disgusting-Cutting 0x824c…e309 Up +25 $1 $1 1 05-09 05:54
Meaty-Tote 0x2279…0f3c Down +22 $21 $21 1 05-09 05:54
Fond-Explanation 0xd1da…27bd Up +21 $10 $10 1 05-09 05:49
Huge-Tic 0x1058…fd57 Down +20 $20 $20 1 05-09 05:54
Anchored-Raiment 0x5074…a598 Down +20 $20 $20 1 05-09 05:54
Waterlogged-Bread 0x5058…c865 Down +20 $20 $20 1 05-09 05:54
Villainous-Sequel 0xb972…6c79 Up +19 $0 $0 1 05-09 05:54
Scratchy-Pledge 0x1537…c3aa Down +17 $17 $17 1 05-09 05:54
Sentimental-Differential 0x510a…d77f Up +15 $1 $1 2 05-09 05:54
Pink-Spirit 0xe8ad…8799 Up +10 $5 $5 1 05-09 05:49
(anonymous) 0xb1e8…68d1 Up +10 $4 $4 3 05-09 05:49
Flowery-Wing 0xa90d…b7d6 Up +8 $4 $4 1 05-09 05:49